Time;durP1;ratioP1;P1;durP2;ratioP2;P2;SDS_P1;SDS_P2;PMS_P1;PMS_P2;Temp;Humidity;BMP_temperature;BMP_pressure;BME280_temperature;BME280_humidity;BME280_pressure;Samples;Min_cycle;Max_cycle;Signal;HPM_P1;HPM_P2
2021/12/07 00:04:31;;;;;;;27.88;14.18;;;;;;;1.56;72.82;99428.13;8813208;33;20620;-72
2021/12/07 00:09:35;;;;;;;30.60;15.02;;;;;;;1.35;73.37;99431.09;8837953;33;20569;-72
2021/12/07 00:14:40;;;;;;;32.95;15.88;;;;;;;1.43;73.17;99420.09;8812630;33;20202;-72
2021/12/07 00:19:44;;;;;;;28.77;13.60;;;;;;;1.38;73.30;99420.34;8838113;33;20420;-72
2021/12/07 00:24:48;;;;;;;28.48;13.52;;;;;;;1.34;73.26;99407.38;8837225;33;20186;-72
2021/12/07 00:29:51;;;;;;;27.80;13.05;;;;;;;1.34;73.23;99399.44;8837312;33;20216;-72
2021/12/07 00:35:20;;;;;;;26.77;13.88;;;;;;;1.37;73.21;99389.53;8812665;33;21044;-72
2021/12/07 00:40:26;;;;;;;27.92;14.68;;;;;;;1.47;72.41;99393.31;8811063;33;20177;-72
2021/12/07 00:45:32;;;;;;;19.58;10.60;;;;;;;1.51;72.06;99399.31;8835545;33;20194;-72
2021/12/07 00:50:38;;;;;;;22.30;11.32;;;;;;;1.55;72.00;99397.31;8836596;33;20255;-72
2021/12/07 00:55:46;;;;;;;23.10;11.82;;;;;;;1.50;72.10;99398.44;8837294;33;20205;-72
2021/12/07 01:00:56;;;;;;;16.85;10.48;;;;;;;1.56;71.66;99404.31;8811315;33;20186;-72
2021/12/07 01:06:16;;;;;;;17.63;10.18;;;;;;;1.59;71.65;99412.94;8837122;33;20163;-72
2021/12/07 01:27:27;;;;;;;12.25;7.57;;;;;;;1.16;79.42;99420.72;8835771;33;20458;-72
2021/12/07 01:32:43;;;;;;;17.95;8.25;;;;;;;1.08;80.72;99409.75;8810628;33;20533;-72
2021/12/07 01:38:02;;;;;;;15.75;8.52;;;;;;;1.11;80.99;99416.66;8834764;33;20891;-71
2021/12/07 02:04:30;;;;;;;14.77;7.75;;;;;;;0.78;83.70;99420.25;8809887;33;20777;-72
2021/12/07 02:09:37;;;;;;;13.80;8.73;;;;;;;0.71;84.04;99414.44;8810556;33;20189;-73
2021/12/07 02:14:43;;;;;;;13.85;8.10;;;;;;;0.68;84.10;99406.69;8809998;33;20134;-73
2021/12/07 02:19:46;;;;;;;16.00;8.47;;;;;;;0.65;84.68;99406.00;8809230;33;20591;-72
2021/12/07 02:24:51;;;;;;;16.47;9.37;;;;;;;0.74;84.63;99416.06;8810171;33;21943;-73
2021/12/07 02:29:54;;;;;;;13.45;8.50;;;;;;;0.78;84.93;99418.47;8835581;33;20428;-73
2021/12/07 02:34:59;;;;;;;13.40;7.75;;;;;;;0.79;84.76;99425.44;8840353;33;20312;-74
2021/12/07 02:40:10;;;;;;;15.15;8.48;;;;;;;0.79;84.90;99419.31;8838185;33;20288;-74
2021/12/07 02:45:20;;;;;;;15.73;8.37;;;;;;;0.89;85.23;99427.59;8810701;33;20535;-74
2021/12/07 02:50:23;;;;;;;16.08;8.20;;;;;;;0.93;85.27;99431.75;8809166;33;20829;-74
2021/12/07 02:55:31;;;;;;;16.88;8.45;;;;;;;0.97;85.42;99436.78;8808684;33;20235;-74
2021/12/07 03:00:42;;;;;;;17.07;9.53;;;;;;;0.96;85.37;99445.69;8807965;33;20224;-74
2021/12/07 03:06:00;;;;;;;16.77;9.77;;;;;;;0.97;84.91;99442.09;8808623;33;20750;-73
2021/12/07 03:27:12;;;;;;;21.80;11.27;;;;;;;0.88;85.24;99452.31;8832299;33;20185;-72
2021/12/07 03:32:16;;;;;;;18.57;10.57;;;;;;;0.84;85.36;99449.00;8832395;33;20647;-72
2021/12/07 03:37:21;;;;;;;21.60;11.00;;;;;;;0.88;85.34;99457.59;8808037;33;20213;-72
2021/12/07 03:42:26;;;;;;;17.85;11.50;;;;;;;0.94;85.12;99470.50;8808472;33;20143;-71
2021/12/07 03:47:30;;;;;;;18.95;10.70;;;;;;;0.90;85.48;99471.59;8807568;33;20163;-72
2021/12/07 03:52:33;;;;;;;20.50;10.57;;;;;;;0.84;85.27;99470.16;8809773;33;20180;-71
2021/12/07 03:57:38;;;;;;;18.88;10.55;;;;;;;0.93;85.55;99482.84;8810284;33;20185;-72
2021/12/07 04:02:45;;;;;;;20.08;10.43;;;;;;;0.95;85.68;99486.25;8831427;33;21091;-73
2021/12/07 04:07:53;;;;;;;18.80;10.73;;;;;;;0.97;86.16;99494.13;8807851;33;21991;-72
2021/12/07 04:12:58;;;;;;;19.40;10.10;;;;;;;1.03;86.11;99499.91;8830870;33;20998;-72
2021/12/07 04:18:03;;;;;;;20.10;9.57;;;;;;;1.08;85.89;99510.25;8831188;33;20190;-73
2021/12/07 04:23:08;;;;;;;16.45;9.00;;;;;;;1.10;86.11;99511.03;8806667;33;20190;-72
2021/12/07 04:28:13;;;;;;;12.23;8.20;;;;;;;1.12;85.97;99503.00;8832438;33;20242;-72
2021/12/07 04:33:17;;;;;;;13.50;8.55;;;;;;;1.15;86.17;99510.75;8832023;33;20652;-73
2021/12/07 04:38:20;;;;;;;14.65;9.10;;;;;;;1.20;86.36;99511.34;8836349;33;21430;-72
2021/12/07 04:43:25;;;;;;;17.08;8.80;;;;;;;1.15;85.94;99523.97;8837054;33;20190;-72
2021/12/07 04:59:08;;;;;;;16.30;8.50;;;;;;;1.05;86.29;99527.13;8836907;33;20189;-75
2021/12/07 05:04:16;;;;;;;14.90;8.50;;;;;;;1.08;86.57;99543.78;8836683;33;21545;-72
2021/12/07 05:09:33;;;;;;;16.35;9.05;;;;;;;1.03;86.19;99559.91;8811528;33;20235;-72
2021/12/07 05:14:41;;;;;;;14.93;8.60;;;;;;;1.00;86.37;99571.50;8837873;33;20150;-71
2021/12/07 05:25:32;;;;;;;17.98;10.75;;;;;;;1.10;86.38;99563.03;8837023;33;20182;-72
2021/12/07 05:41:18;;;;;;;19.73;9.65;;;;;;;1.20;86.01;99594.22;8837309;33;20307;-71
2021/12/07 05:46:22;;;;;;;15.48;8.27;;;;;;;1.13;86.17;99602.59;8837456;33;20258;-71
2021/12/07 05:51:26;;;;;;;18.75;10.23;;;;;;;1.03;86.18;99611.00;8836095;33;20230;-72
2021/12/07 05:56:29;;;;;;;21.45;11.38;;;;;;;0.90;86.24;99623.16;8836191;33;20635;-73
2021/12/07 06:01:33;;;;;;;19.80;11.15;;;;;;;0.87;86.48;99633.06;8836013;33;20650;-71
2021/12/07 06:06:38;;;;;;;18.20;9.90;;;;;;;0.59;86.78;99627.41;8837921;33;20495;-72
2021/12/07 06:11:42;;;;;;;17.92;9.88;;;;;;;0.69;86.25;99640.19;8836724;33;20229;-71
2021/12/07 06:16:47;;;;;;;19.70;9.77;;;;;;;0.63;86.17;99645.75;8836534;33;20637;-73
2021/12/07 06:21:50;;;;;;;17.50;8.83;;;;;;;0.72;85.83;99645.31;8837229;33;20200;-72
2021/12/07 06:26:53;;;;;;;17.03;8.80;;;;;;;0.79;85.42;99647.53;8835914;33;21855;-71
2021/12/07 06:31:58;;;;;;;15.55;8.18;;;;;;;0.67;85.77;99655.25;8835391;33;20126;-72
2021/12/07 06:37:01;;;;;;;21.15;10.80;;;;;;;0.72;85.49;99659.38;8835362;33;20341;-71
2021/12/07 06:42:05;;;;;;;18.60;7.97;;;;;;;0.55;85.78;99681.38;8835381;33;20150;-72
2021/12/07 06:47:09;;;;;;;18.20;9.93;;;;;;;0.28;86.94;99690.69;8810202;33;20712;-73
2021/12/07 06:52:13;;;;;;;21.65;9.40;;;;;;;0.51;86.18;99695.69;8835465;33;20286;-72
2021/12/07 06:57:16;;;;;;;19.10;9.27;;;;;;;0.37;86.89;99698.16;8834111;33;20564;-73
2021/12/07 07:02:21;;;;;;;18.63;9.43;;;;;;;0.30;86.68;99713.47;8834293;33;20451;-71
2021/12/07 07:07:24;;;;;;;20.38;10.13;;;;;;;0.61;85.67;99727.78;8834768;33;20272;-71
2021/12/07 07:12:27;;;;;;;21.20;10.50;;;;;;;0.64;85.42;99727.63;8835125;33;20221;-72
2021/12/07 07:17:31;;;;;;;21.38;10.35;;;;;;;0.69;85.79;99740.63;8833790;33;20258;-72
2021/12/07 07:22:35;;;;;;;25.70;12.38;;;;;;;0.65;85.83;99755.78;8834244;33;21594;-72
2021/12/07 07:27:39;;;;;;;24.30;11.52;;;;;;;0.59;85.85;99766.66;8835160;33;20241;-72
2021/12/07 07:32:45;;;;;;;30.43;12.30;;;;;;;0.79;85.51;99761.22;8833184;33;20190;-72
2021/12/07 07:37:48;;;;;;;36.33;13.63;;;;;;;0.76;86.02;99766.66;8834246;33;20182;-72
2021/12/07 07:42:52;;;;;;;28.77;13.03;;;;;;;0.63;86.16;99773.50;8834186;33;20381;-72
2021/12/07 07:48:20;;;;;;;28.63;13.73;;;;;;;0.81;85.95;99764.66;8833844;33;21601;-72
2021/12/07 07:53:25;;;;;;;32.75;13.80;;;;;;;0.81;85.92;99777.88;8807967;33;20162;-73
2021/12/07 07:58:31;;;;;;;35.13;14.90;;;;;;;0.90;86.09;99784.47;8832211;33;20242;-73
2021/12/07 08:03:36;;;;;;;35.85;14.77;;;;;;;0.78;86.00;99785.97;8833762;33;20186;-72
2021/12/07 08:08:40;;;;;;;31.48;14.80;;;;;;;0.93;86.19;99784.31;8808570;33;20182;-72
2021/12/07 08:13:44;;;;;;;35.80;14.43;;;;;;;0.83;86.40;99786.59;8838132;33;22496;-72
2021/12/07 08:18:51;;;;;;;32.70;15.53;;;;;;;1.06;85.75;99795.97;8838213;33;20603;-72
2021/12/07 08:23:55;;;;;;;28.95;13.38;;;;;;;0.89;86.15;99803.09;8811927;33;20190;-72
2021/12/07 08:28:59;;;;;;;43.17;16.45;;;;;;;1.00;86.29;99800.75;8838093;33;20181;-72
2021/12/07 08:34:04;;;;;;;36.37;15.07;;;;;;;1.21;85.43;99801.44;8838467;33;20235;-72
2021/12/07 08:39:09;;;;;;;35.00;14.25;;;;;;;1.10;85.66;99802.00;8856466;33;20658;-73
2021/12/07 08:44:12;;;;;;;35.55;14.25;;;;;;;1.16;85.85;99804.31;8858742;33;20206;-72
2021/12/07 08:49:18;;;;;;;31.85;14.48;;;;;;;1.23;85.67;99804.84;8838235;33;20243;-72
2021/12/07 08:54:30;;;;;;;28.60;14.73;;;;;;;1.14;85.63;99802.69;8838172;33;20150;-72
2021/12/07 08:59:39;;;;;;;34.72;15.75;;;;;;;1.09;86.04;99799.41;8837888;33;20768;-73
2021/12/07 09:04:45;;;;;;;38.77;14.50;;;;;;;1.37;85.48;99812.06;8839045;33;20628;-72
2021/12/07 09:09:49;;;;;;;35.40;13.75;;;;;;;1.19;85.74;99798.88;8837748;33;20127;-71
2021/12/07 09:14:53;;;;;;;36.80;14.85;;;;;;;1.51;85.14;99799.00;8837916;33;20281;-72
2021/12/07 09:19:57;;;;;;;32.28;14.80;;;;;;;1.48;85.18;99809.72;8836566;33;20174;-72
2021/12/07 09:25:00;;;;;;;35.55;14.43;;;;;;;1.68;84.93;99812.19;8836855;33;20667;-72
2021/12/07 09:30:05;;;;;;;36.92;14.75;;;;;;;1.85;84.62;99828.97;8836997;33;20605;-72
2021/12/07 09:35:11;;;;;;;30.35;14.20;;;;;;;1.90;84.61;99832.22;8836507;33;20426;-72
2021/12/07 09:40:18;;;;;;;34.20;14.52;;;;;;;1.90;84.24;99825.13;8835984;33;21010;-72
2021/12/07 09:45:21;;;;;;;36.60;14.40;;;;;;;2.05;83.60;99826.06;8836076;33;21330;-72
2021/12/07 09:50:27;;;;;;;29.30;12.93;;;;;;;2.08;83.75;99823.25;8836030;33;20203;-72
2021/12/07 09:55:31;;;;;;;31.92;13.25;;;;;;;1.88;83.77;99827.00;8836425;33;20174;-72
2021/12/07 10:00:36;;;;;;;24.48;11.32;;;;;;;2.18;83.60;99823.63;8834483;33;20174;-72
2021/12/07 10:05:41;;;;;;;32.53;12.75;;;;;;;2.22;83.40;99806.59;8809740;33;20372;-72
2021/12/07 10:10:48;;;;;;;26.27;12.07;;;;;;;2.27;83.08;99801.91;8834579;33;20219;-72
2021/12/07 10:15:53;;;;;;;28.40;12.27;;;;;;;2.23;82.67;99810.13;8833699;33;20197;-72
2021/12/07 10:21:03;;;;;;;26.23;12.50;;;;;;;2.40;83.04;99810.03;8834595;33;20701;-72
2021/12/07 10:26:11;;;;;;;22.92;11.25;;;;;;;2.67;82.40;99789.06;8835610;33;20238;-72
2021/12/07 10:31:31;;;;;;;24.92;11.57;;;;;;;2.79;80.84;99798.97;8833425;33;20331;-72
2021/12/07 10:36:38;;;;;;;28.10;12.05;;;;;;;2.65;81.66;99812.16;8832772;33;20147;-72
2021/12/07 10:41:45;;;;;;;25.15;11.27;;;;;;;2.64;81.98;99839.63;8833712;33;20929;-72
2021/12/07 10:46:52;;;;;;;24.38;10.35;;;;;;;2.21;83.22;99865.00;8835010;33;20177;-72
2021/12/07 10:52:21;;;;;;;22.05;10.50;;;;;;;2.25;83.02;99842.69;8834952;33;20155;-72
2021/12/07 10:57:27;;;;;;;25.05;10.60;;;;;;;2.15;83.66;99829.09;8833818;33;20848;-72
2021/12/07 11:02:34;;;;;;;26.35;11.77;;;;;;;1.85;84.46;99816.56;8833184;33;20199;-72
2021/12/07 11:07:39;;;;;;;25.77;12.55;;;;;;;2.20;84.18;99820.91;8834705;33;20138;-72
2021/12/07 11:12:51;;;;;;;24.83;11.77;;;;;;;2.15;84.74;99816.69;8833428;33;20273;-72
2021/12/07 11:18:01;;;;;;;22.08;12.10;;;;;;;2.26;84.57;99817.91;8834055;33;20185;-72
2021/12/07 11:23:12;;;;;;;28.02;11.57;;;;;;;2.37;84.12;99815.50;8833209;33;20871;-72
2021/12/07 11:33:54;;;;;;;38.28;16.48;;;;;;;2.50;84.52;99840.38;8834127;33;20127;-72
2021/12/07 11:39:00;;;;;;;34.40;17.05;;;;;;;2.51;84.71;99842.09;8833261;33;20707;-72
2021/12/07 11:44:08;;;;;;;37.90;17.00;;;;;;;2.66;84.02;99840.41;8835029;33;20178;-72
2021/12/07 11:49:15;;;;;;;38.47;18.55;;;;;;;2.65;84.07;99841.34;8813460;33;20746;-72
2021/12/07 11:54:25;;;;;;;37.63;17.45;;;;;;;2.53;84.44;99842.00;8837834;33;20188;-72
2021/12/07 11:59:29;;;;;;;41.53;19.35;;;;;;;2.79;83.69;99830.78;8810926;33;20146;-72
2021/12/07 12:04:32;;;;;;;46.63;21.80;;;;;;;2.93;83.62;99834.44;8836322;33;20243;-72
2021/12/07 12:09:45;;;;;;;49.15;21.58;;;;;;;2.89;83.36;99824.97;8836018;33;20139;-72
2021/12/07 12:15:03;;;;;;;54.35;25.77;;;;;;;2.82;83.26;99814.69;8838058;33;21851;-72
2021/12/07 12:20:26;;;;;;;52.75;22.67;;;;;;;2.96;83.40;99813.91;8838336;33;20239;-72
2021/12/07 12:25:31;;;;;;;50.42;20.55;;;;;;;3.03;82.92;99801.13;8838527;33;20205;-72
2021/12/07 12:30:39;;;;;;;49.92;23.40;;;;;;;3.10;82.73;99791.88;8837602;33;20213;-72
2021/12/07 12:35:50;;;;;;;45.42;22.05;;;;;;;3.25;82.38;99798.06;8838206;33;20142;-72
2021/12/07 12:40:58;;;;;;;50.92;22.45;;;;;;;3.52;82.04;99787.56;8838240;33;20135;-72
2021/12/07 12:46:04;;;;;;;48.83;20.08;;;;;;;3.44;81.65;99785.38;8837905;33;20442;-72
2021/12/07 12:51:09;;;;;;;47.78;23.15;;;;;;;3.28;81.79;99788.09;8837799;33;20189;-72
2021/12/07 12:56:17;;;;;;;50.40;21.90;;;;;;;3.31;81.75;99783.56;8835528;33;20178;-71
2021/12/07 13:01:25;;;;;;;46.75;19.63;;;;;;;3.45;80.66;99780.91;8837243;33;20464;-72
2021/12/07 13:07:23;;;;;;;48.03;18.98;;;;;;;3.44;80.10;99803.13;8811909;33;20186;-72
2021/12/07 13:12:38;;;;;;;41.17;18.65;;;;;;;3.47;80.24;99793.16;8836921;33;20769;-72
2021/12/07 13:17:44;;;;;;;44.08;19.42;;;;;;;3.84;80.05;99793.56;8837975;33;21152;-72
2021/12/07 13:22:57;;;;;;;42.88;18.10;;;;;;;3.64;79.55;99783.31;8837146;33;20312;-71
2021/12/07 13:28:31;;;;;;;37.78;17.45;;;;;;;3.55;80.21;99792.69;8836871;33;20147;-72
2021/12/07 13:33:43;;;;;;;33.15;14.93;;;;;;;3.36;80.46;99794.75;8810680;33;20431;-72
2021/12/07 13:38:46;;;;;;;35.80;16.10;;;;;;;3.61;80.34;99787.00;8836365;33;20182;-72
2021/12/07 13:43:53;;;;;;;37.15;16.88;;;;;;;3.73;79.77;99796.03;8836279;33;20194;-72
2021/12/07 13:49:07;;;;;;;35.65;15.63;;;;;;;3.47;79.55;99784.34;8836362;33;20180;-72
2021/12/07 13:54:18;;;;;;;37.17;16.58;;;;;;;3.75;80.00;99790.59;8836205;33;21026;-72
2021/12/07 13:59:26;;;;;;;34.70;14.05;;;;;;;4.01;80.87;99773.91;8809963;33;20239;-72
2021/12/07 14:04:30;;;;;;;30.95;13.65;;;;;;;4.04;79.48;99767.53;8835445;33;20193;-72
2021/12/07 14:09:34;;;;;;;25.67;13.43;;;;;;;3.86;80.40;99759.75;8830915;33;20203;-72
2021/12/07 14:14:38;;;;;;;29.17;14.05;;;;;;;3.69;80.49;99750.19;8834987;33;20173;-72
2021/12/07 14:19:41;;;;;;;29.08;14.95;;;;;;;3.60;80.99;99745.47;8835140;33;20229;-72
2021/12/07 14:24:44;;;;;;;29.98;13.35;;;;;;;3.63;81.56;99739.97;8835857;33;20178;-72
2021/12/07 14:29:48;;;;;;;28.35;13.52;;;;;;;3.67;81.33;99735.28;8835048;33;20608;-72
2021/12/07 14:34:51;;;;;;;39.13;14.65;;;;;;;3.70;80.38;99732.44;8856961;33;20139;-72
2021/12/07 14:39:55;;;;;;;29.45;14.63;;;;;;;3.63;81.15;99724.03;8842181;32;20201;-73
2021/12/07 14:45:00;;;;;;;30.38;14.57;;;;;;;3.43;81.43;99722.63;8843240;32;20238;-72
2021/12/07 14:50:04;;;;;;;30.00;13.50;;;;;;;3.31;82.32;99720.69;8834869;33;20284;-72
2021/12/07 14:55:08;;;;;;;26.77;12.70;;;;;;;3.25;81.93;99718.44;8834539;33;20190;-72
2021/12/07 15:00:16;;;;;;;19.55;11.70;;;;;;;3.10;80.26;99712.28;8834622;33;20469;-72
2021/12/07 15:05:19;;;;;;;19.58;10.98;;;;;;;3.08;80.16;99706.19;8834699;33;20188;-72
2021/12/07 15:10:22;;;;;;;17.35;10.15;;;;;;;3.00;79.93;99692.53;8834461;33;20832;-72
2021/12/07 15:15:27;;;;;;;22.60;11.40;;;;;;;2.94;80.03;99685.81;8834686;33;20185;-71
2021/12/07 15:20:30;;;;;;;22.45;9.85;;;;;;;2.83;80.04;99681.13;8840039;33;20253;-72
2021/12/07 15:25:33;;;;;;;19.38;10.48;;;;;;;2.76;79.92;99686.91;8834329;33;20182;-72
2021/12/07 15:30:39;;;;;;;15.45;9.60;;;;;;;2.92;80.02;99676.22;8809050;33;20173;-72
2021/12/07 15:35:44;;;;;;;21.45;9.02;;;;;;;2.86;79.33;99677.44;8834720;33;22350;-72
2021/12/07 15:40:48;;;;;;;21.58;10.05;;;;;;;2.92;79.11;99687.69;8833373;33;20202;-72
2021/12/07 15:45:52;;;;;;;18.00;9.02;;;;;;;2.87;77.07;99676.50;8829966;33;20182;-72
2021/12/07 15:51:02;;;;;;;17.70;8.65;;;;;;;2.95;77.28;99679.53;8832891;33;20201;-72
2021/12/07 15:56:05;;;;;;;20.05;9.27;;;;;;;2.87;76.70;99671.19;8806390;33;20195;-72
2021/12/07 16:01:10;;;;;;;17.67;8.80;;;;;;;2.64;77.74;99667.28;8806139;33;20186;-72
2021/12/07 16:06:18;;;;;;;19.02;8.95;;;;;;;2.45;78.54;99662.16;8833105;33;20617;-72
2021/12/07 16:11:24;;;;;;;19.42;8.90;;;;;;;2.32;78.78;99656.72;8833164;33;20141;-71
2021/12/07 16:16:30;;;;;;;13.95;7.72;;;;;;;2.15;78.55;99652.41;8832948;33;20186;-72
2021/12/07 16:21:34;;;;;;;14.85;8.93;;;;;;;2.04;78.06;99638.09;8833219;33;20240;-72
2021/12/07 16:26:37;;;;;;;13.95;8.10;;;;;;;2.03;78.72;99634.59;8832618;33;20209;-71
2021/12/07 16:31:41;;;;;;;16.50;10.25;;;;;;;1.93;79.43;99622.81;8809480;33;20280;-71
2021/12/07 16:36:46;;;;;;;16.25;9.77;;;;;;;1.78;78.71;99616.56;8837838;33;20512;-71
2021/12/07 16:41:49;;;;;;;21.15;9.02;;;;;;;1.79;78.18;99598.91;8812571;33;21237;-71
2021/12/07 16:46:54;;;;;;;17.75;9.45;;;;;;;1.68;79.09;99596.88;8837884;33;20955;-71
2021/12/07 16:51:57;;;;;;;15.82;7.70;;;;;;;1.63;79.41;99586.53;8837158;33;21246;-72
2021/12/07 16:57:05;;;;;;;14.55;8.60;;;;;;;1.59;79.52;99594.72;8838258;33;20258;-72
2021/12/07 17:02:10;;;;;;;19.60;8.95;;;;;;;1.48;78.88;99582.97;8838678;33;21043;-71
2021/12/07 17:07:13;;;;;;;12.30;8.07;;;;;;;1.46;79.37;99573.41;8837702;33;20593;-71
2021/12/07 17:12:16;;;;;;;16.13;8.57;;;;;;;1.41;79.55;99578.09;8837461;33;20212;-71
2021/12/07 17:17:20;;;;;;;21.17;11.02;;;;;;;1.20;79.13;99573.03;8840277;33;20189;-73
2021/12/07 17:22:24;;;;;;;15.02;8.93;;;;;;;1.18;79.50;99563.47;8838090;33;20286;-72
2021/12/07 17:27:28;;;;;;;18.25;8.43;;;;;;;1.06;79.74;99555.28;8837274;33;20182;-71
2021/12/07 17:32:32;;;;;;;17.65;8.73;;;;;;;1.05;79.88;99539.50;8836901;33;20808;-71
2021/12/07 17:37:37;;;;;;;18.08;8.95;;;;;;;0.88;79.55;99524.56;8836856;33;20188;-71
2021/12/07 17:42:41;;;;;;;18.90;8.70;;;;;;;0.92;79.61;99522.63;8836254;33;20186;-71
2021/12/07 17:47:46;;;;;;;17.40;7.90;;;;;;;0.96;79.51;99493.28;8836279;33;20193;-71
2021/12/07 17:52:49;;;;;;;16.27;8.45;;;;;;;0.95;79.21;99498.63;8835975;33;20207;-71
2021/12/07 17:57:53;;;;;;;14.13;8.73;;;;;;;0.92;78.76;99490.88;8836204;33;20143;-72
2021/12/07 18:02:58;;;;;;;15.50;8.75;;;;;;;0.96;78.55;99479.19;8836130;33;20154;-71
2021/12/07 18:08:02;;;;;;;16.55;8.27;;;;;;;0.94;78.82;99471.34;8837663;33;20621;-72
2021/12/07 18:13:06;;;;;;;22.45;11.15;;;;;;;0.83;78.58;99479.03;8836316;33;20233;-71
2021/12/07 18:18:11;;;;;;;18.23;10.70;;;;;;;0.89;78.44;99478.69;8836600;33;20269;-72
2021/12/07 18:23:21;;;;;;;22.20;9.23;;;;;;;0.92;78.66;99467.06;8837605;33;20535;-71
2021/12/07 18:28:24;;;;;;;11.33;7.23;;;;;;;0.89;78.19;99464.63;8810512;33;20217;-71
2021/12/07 18:33:33;;;;;;;18.15;8.95;;;;;;;0.84;78.01;99433.97;8835600;33;20139;-70
2021/12/07 18:38:40;;;;;;;16.47;9.13;;;;;;;0.83;78.86;99420.84;8835524;33;21527;-71
2021/12/07 18:43:46;;;;;;;17.05;9.82;;;;;;;0.73;78.67;99398.50;8835311;33;20186;-72
2021/12/07 18:48:51;;;;;;;19.23;11.05;;;;;;;0.72;78.85;99415.31;8835675;33;20201;-71
2021/12/07 18:53:55;;;;;;;21.70;10.38;;;;;;;0.72;79.22;99402.09;8834683;33;20203;-71
2021/12/07 18:58:58;;;;;;;16.55;9.40;;;;;;;0.76;79.05;99390.41;8835057;33;20169;-71
2021/12/07 19:04:03;;;;;;;14.77;8.65;;;;;;;0.62;78.80;99388.53;8834778;33;20598;-71
2021/12/07 19:09:08;;;;;;;20.83;10.23;;;;;;;0.61;79.07;99385.03;8834119;33;20280;-71
2021/12/07 19:14:11;;;;;;;15.32;8.43;;;;;;;0.54;78.58;99356.41;8835348;33;20582;-71
2021/12/07 19:19:15;;;;;;;12.53;8.13;;;;;;;0.52;78.61;99343.28;8834171;33;20186;-71
2021/12/07 19:24:20;;;;;;;13.80;7.50;;;;;;;0.49;78.41;99339.94;8833984;33;20325;-71
2021/12/07 19:29:26;;;;;;;17.75;7.63;;;;;;;0.61;78.93;99312.84;8809213;33;20186;-71
2021/12/07 19:34:30;;;;;;;13.90;8.63;;;;;;;0.58;78.84;99305.09;8834976;33;20186;-72
2021/12/07 19:39:34;;;;;;;16.10;8.40;;;;;;;0.50;78.50;99283.53;8834247;33;20131;-72
2021/12/07 19:44:37;;;;;;;16.02;7.88;;;;;;;0.56;79.08;99267.31;8834210;33;20166;-71
2021/12/07 19:49:42;;;;;;;17.73;8.27;;;;;;;0.49;78.97;99252.75;8833278;33;20606;-71
2021/12/07 19:54:47;;;;;;;15.20;6.87;;;;;;;0.53;78.73;99257.78;8833549;33;20426;-71
2021/12/07 19:59:50;;;;;;;14.20;8.57;;;;;;;0.58;78.62;99233.75;8832490;33;20286;-71
2021/12/07 20:04:55;;;;;;;15.43;8.40;;;;;;;0.52;78.55;99231.44;8830237;33;20935;-72
2021/12/07 20:09:58;;;;;;;22.63;10.67;;;;;;;0.54;79.27;99221.63;8839088;33;20307;-71
2021/12/07 20:15:02;;;;;;;17.67;8.07;;;;;;;0.47;78.91;99213.22;8839059;33;20500;-72
2021/12/07 20:20:10;;;;;;;14.43;8.65;;;;;;;0.47;78.59;99197.38;8838872;33;20615;-71
2021/12/07 20:25:14;;;;;;;19.48;9.65;;;;;;;0.56;78.59;99188.88;8839906;33;20174;-71
2021/12/07 20:30:17;;;;;;;12.38;4.95;;;;;;;0.68;78.21;99191.75;8861703;33;20237;-72
2021/12/07 20:35:22;;;;;;;5.60;3.57;;;;;;;0.80;77.58;99183.09;8850584;33;20495;-71
2021/12/07 20:40:25;;;;;;;13.23;5.22;;;;;;;0.91;76.42;99172.72;8838328;33;20770;-70
2021/12/07 20:45:30;;;;;;;7.25;4.25;;;;;;;0.99;76.03;99169.63;8838400;33;20193;-71
2021/12/07 20:50:35;;;;;;;11.40;5.00;;;;;;;1.03;75.69;99153.47;8837608;33;20686;-71
2021/12/07 20:55:38;;;;;;;10.18;5.00;;;;;;;1.13;75.73;99139.69;8834075;33;20174;-71
2021/12/07 21:00:43;;;;;;;8.23;4.88;;;;;;;0.98;75.22;99115.03;8837504;33;20667;-71
2021/12/07 21:05:47;;;;;;;9.95;5.10;;;;;;;1.03;75.46;99083.84;8838088;33;20185;-71
2021/12/07 21:10:54;;;;;;;7.43;5.07;;;;;;;0.88;75.37;99061.88;8837849;33;20189;-71
2021/12/07 21:15:58;;;;;;;9.03;5.97;;;;;;;0.77;75.69;99036.09;8836562;33;20158;-72
2021/12/07 21:21:03;;;;;;;14.90;7.27;;;;;;;0.80;76.01;99032.41;8808680;33;20189;-71
2021/12/07 21:26:07;;;;;;;11.20;6.40;;;;;;;0.79;75.92;99017.50;8836018;33;20721;-72
2021/12/07 21:31:31;;;;;;;11.03;6.47;;;;;;;0.74;76.22;98980.78;8836590;33;20461;-72
2021/12/07 21:36:40;;;;;;;12.43;6.67;;;;;;;0.69;75.70;98988.16;8837590;33;21378;-72
2021/12/07 21:41:43;;;;;;;14.90;6.50;;;;;;;0.78;75.43;98969.06;8810747;33;21050;-71
2021/12/07 21:46:47;;;;;;;14.00;6.93;;;;;;;0.84;75.60;98950.16;8836441;33;20598;-72
2021/12/07 21:51:52;;;;;;;10.87;6.57;;;;;;;0.94;74.92;98954.88;8837084;33;20845;-70
2021/12/07 21:56:55;;;;;;;15.07;6.60;;;;;;;0.81;74.80;98917.78;8836211;33;20236;-71
2021/12/07 22:01:58;;;;;;;10.20;5.47;;;;;;;0.71;74.46;98900.81;8836023;33;20215;-71
2021/12/07 22:07:03;;;;;;;10.47;6.20;;;;;;;0.79;73.92;98874.75;8836712;33;20481;-71
2021/12/07 22:12:08;;;;;;;12.73;5.33;;;;;;;0.97;72.77;98870.91;8837453;33;20278;-71
2021/12/07 22:17:12;;;;;;;7.77;4.73;;;;;;;1.12;72.40;98850.53;8837091;33;20184;-72
2021/12/07 22:22:17;;;;;;;7.63;4.85;;;;;;;1.18;71.68;98847.50;8836208;33;20147;-71
2021/12/07 22:27:22;;;;;;;7.57;5.10;;;;;;;1.22;71.43;98848.13;8836903;33;20856;-71
2021/12/07 22:32:26;;;;;;;12.13;5.60;;;;;;;1.22;71.12;98861.34;8835122;33;20301;-72
2021/12/07 22:37:31;;;;;;;8.83;5.40;;;;;;;1.28;70.83;98868.88;8835039;33;21263;-71
2021/12/07 22:42:34;;;;;;;9.40;4.60;;;;;;;1.49;71.22;98893.06;8833155;33;20531;-71
2021/12/07 22:47:38;;;;;;;9.93;4.30;;;;;;;1.60;70.37;98892.34;8832542;33;20532;-71
2021/12/07 22:52:43;;;;;;;6.57;4.25;;;;;;;1.59;70.98;98866.81;8829511;33;20174;-72
2021/12/07 22:57:47;;;;;;;4.82;3.13;;;;;;;1.59;69.31;98888.84;8834674;33;20142;-71
2021/12/07 23:02:52;;;;;;;4.55;3.10;;;;;;;1.64;68.25;98867.34;8834805;33;20181;-72
2021/12/07 23:07:58;;;;;;;9.93;3.78;;;;;;;1.71;68.13;98858.88;8835175;33;20200;-72
2021/12/07 23:13:06;;;;;;;4.15;3.30;;;;;;;1.51;68.06;98864.72;8834682;33;20226;-71
2021/12/07 23:18:12;;;;;;;7.90;4.03;;;;;;;1.81;67.56;98847.66;8834746;33;20189;-71
2021/12/07 23:23:18;;;;;;;8.80;4.05;;;;;;;1.66;67.19;98828.41;8809225;33;20192;-72
2021/12/07 23:28:25;;;;;;;8.50;2.97;;;;;;;1.66;66.62;98831.88;8833855;33;20281;-71
2021/12/07 23:33:31;;;;;;;6.05;2.97;;;;;;;1.70;66.28;98806.91;8833531;33;20176;-71
2021/12/07 23:38:39;;;;;;;9.70;3.30;;;;;;;1.86;65.91;98811.13;8834127;33;20633;-71
2021/12/07 23:43:43;;;;;;;5.43;3.20;;;;;;;1.72;65.75;98801.50;8838681;33;20208;-71
2021/12/07 23:48:47;;;;;;;3.45;2.83;;;;;;;2.02;65.54;98800.28;8839251;33;20209;-71
2021/12/07 23:53:53;;;;;;;4.05;3.40;;;;;;;1.77;65.52;98777.34;8839013;33;20196;-71
2021/12/07 23:58:56;;;;;;;3.90;2.45;;;;;;;1.90;65.23;98771.09;8838965;33;20285;-72
